sensor_id;sensor_type;location;lat;lon;timestamp;P1;durP1;ratioP1;P2;durP2;ratioP2
48092;SDS011;33873;47.442;18.902;2022-10-20T00:01:02;2.35;;;1.45;;
48092;SDS011;33873;47.442;18.902;2022-10-20T00:03:30;1.45;;;0.80;;
48092;SDS011;33873;47.442;18.902;2022-10-20T00:06:05;2.22;;;1.33;;
48092;SDS011;33873;47.442;18.902;2022-10-20T00:08:37;1.98;;;1.02;;
48092;SDS011;33873;47.442;18.902;2022-10-20T00:11:05;1.40;;;1.30;;
48092;SDS011;33873;47.442;18.902;2022-10-20T00:13:33;6.57;;;1.95;;
48092;SDS011;33873;47.442;18.902;2022-10-20T00:16:01;0.93;;;0.80;;
48092;SDS011;33873;47.442;18.902;2022-10-20T00:18:29;1.73;;;1.25;;
48092;SDS011;33873;47.442;18.902;2022-10-20T00:20:57;0.50;;;0.50;;
48092;SDS011;33873;47.442;18.902;2022-10-20T00:23:24;1.85;;;1.00;;
48092;SDS011;33873;47.442;18.902;2022-10-20T00:26:02;4.95;;;1.15;;
48092;SDS011;33873;47.442;18.902;2022-10-20T00:28:31;1.35;;;0.85;;
48092;SDS011;33873;47.442;18.902;2022-10-20T00:30:59;1.10;;;1.00;;
48092;SDS011;33873;47.442;18.902;2022-10-20T00:33:26;1.55;;;1.20;;
48092;SDS011;33873;47.442;18.902;2022-10-20T00:35:57;1.55;;;0.98;;
48092;SDS011;33873;47.442;18.902;2022-10-20T00:38:25;2.75;;;1.95;;
48092;SDS011;33873;47.442;18.902;2022-10-20T00:40:53;2.65;;;2.28;;
48092;SDS011;33873;47.442;18.902;2022-10-20T00:43:21;5.80;;;1.70;;
48092;SDS011;33873;47.442;18.902;2022-10-20T00:45:50;2.22;;;1.45;;
48092;SDS011;33873;47.442;18.902;2022-10-20T00:48:24;1.65;;;1.55;;
48092;SDS011;33873;47.442;18.902;2022-10-20T00:50:53;2.78;;;0.95;;
48092;SDS011;33873;47.442;18.902;2022-10-20T00:53:23;1.20;;;1.02;;
48092;SDS011;33873;47.442;18.902;2022-10-20T00:55:53;1.87;;;1.42;;
48092;SDS011;33873;47.442;18.902;2022-10-20T00:58:21;2.97;;;0.75;;
48092;SDS011;33873;47.442;18.902;2022-10-20T01:00:49;1.17;;;1.02;;
48092;SDS011;33873;47.442;18.902;2022-10-20T01:03:21;1.85;;;1.45;;
48092;SDS011;33873;47.442;18.902;2022-10-20T01:05:51;9.75;;;1.37;;
48092;SDS011;33873;47.442;18.902;2022-10-20T01:08:18;1.17;;;1.05;;
48092;SDS011;33873;47.442;18.902;2022-10-20T01:10:50;2.62;;;1.98;;
48092;SDS011;33873;47.442;18.902;2022-10-20T01:14:02;2.33;;;1.50;;
48092;SDS011;33873;47.442;18.902;2022-10-20T01:16:49;0.73;;;0.73;;
48092;SDS011;33873;47.442;18.902;2022-10-20T01:25:49;2.00;;;1.30;;
48092;SDS011;33873;47.442;18.902;2022-10-20T01:28:26;2.20;;;1.15;;
48092;SDS011;33873;47.442;18.902;2022-10-20T01:32:13;1.20;;;1.10;;
48092;SDS011;33873;47.442;18.902;2022-10-20T01:34:30;1.35;;;1.17;;
48092;SDS011;33873;47.442;18.902;2022-10-20T01:37:24;1.60;;;1.27;;
48092;SDS011;33873;47.442;18.902;2022-10-20T01:43:11;0.95;;;0.93;;
48092;SDS011;33873;47.442;18.902;2022-10-20T01:45:41;2.08;;;1.83;;
48092;SDS011;33873;47.442;18.902;2022-10-20T01:48:11;1.42;;;1.08;;
48092;SDS011;33873;47.442;18.902;2022-10-20T01:50:39;5.15;;;1.48;;
48092;SDS011;33873;47.442;18.902;2022-10-20T01:53:07;1.20;;;1.00;;
48092;SDS011;33873;47.442;18.902;2022-10-20T01:55:35;1.20;;;0.98;;
48092;SDS011;33873;47.442;18.902;2022-10-20T02:03:56;0.70;;;0.70;;
48092;SDS011;33873;47.442;18.902;2022-10-20T02:06:32;1.27;;;1.15;;
48092;SDS011;33873;47.442;18.902;2022-10-20T02:14:17;1.35;;;0.95;;
48092;SDS011;33873;47.442;18.902;2022-10-20T02:16:57;1.15;;;1.08;;
48092;SDS011;33873;47.442;18.902;2022-10-20T02:19:28;1.90;;;1.45;;
48092;SDS011;33873;47.442;18.902;2022-10-20T02:21:58;0.93;;;0.93;;
48092;SDS011;33873;47.442;18.902;2022-10-20T02:24:28;3.03;;;1.37;;
48092;SDS011;33873;47.442;18.902;2022-10-20T02:26:57;1.37;;;1.10;;
48092;SDS011;33873;47.442;18.902;2022-10-20T02:29:28;0.95;;;0.90;;
48092;SDS011;33873;47.442;18.902;2022-10-20T02:31:58;2.28;;;1.40;;
48092;SDS011;33873;47.442;18.902;2022-10-20T02:34:26;3.17;;;1.85;;
48092;SDS011;33873;47.442;18.902;2022-10-20T02:36:55;1.70;;;1.30;;
48092;SDS011;33873;47.442;18.902;2022-10-20T02:39:24;2.37;;;1.48;;
48092;SDS011;33873;47.442;18.902;2022-10-20T02:41:52;2.00;;;1.67;;
48092;SDS011;33873;47.442;18.902;2022-10-20T02:44:21;1.95;;;1.42;;
48092;SDS011;33873;47.442;18.902;2022-10-20T02:46:49;1.90;;;1.48;;
48092;SDS011;33873;47.442;18.902;2022-10-20T02:49:16;0.70;;;0.70;;
48092;SDS011;33873;47.442;18.902;2022-10-20T02:51:44;0.85;;;0.85;;
48092;SDS011;33873;47.442;18.902;2022-10-20T02:54:11;1.40;;;1.30;;
48092;SDS011;33873;47.442;18.902;2022-10-20T02:56:38;0.82;;;0.77;;
48092;SDS011;33873;47.442;18.902;2022-10-20T02:59:08;2.60;;;1.48;;
48092;SDS011;33873;47.442;18.902;2022-10-20T03:01:39;1.10;;;1.00;;
48092;SDS011;33873;47.442;18.902;2022-10-20T03:04:07;0.60;;;0.60;;
48092;SDS011;33873;47.442;18.902;2022-10-20T03:06:34;2.53;;;1.02;;
48092;SDS011;33873;47.442;18.902;2022-10-20T03:09:02;1.48;;;1.23;;
48092;SDS011;33873;47.442;18.902;2022-10-20T03:11:30;1.05;;;0.77;;
48092;SDS011;33873;47.442;18.902;2022-10-20T03:13:57;2.08;;;1.87;;
48092;SDS011;33873;47.442;18.902;2022-10-20T03:16:25;0.75;;;0.75;;
48092;SDS011;33873;47.442;18.902;2022-10-20T03:18:53;1.48;;;1.05;;
48092;SDS011;33873;47.442;18.902;2022-10-20T03:21:23;0.77;;;0.77;;
48092;SDS011;33873;47.442;18.902;2022-10-20T03:23:51;1.15;;;1.05;;
48092;SDS011;33873;47.442;18.902;2022-10-20T03:26:18;1.65;;;1.10;;
48092;SDS011;33873;47.442;18.902;2022-10-20T03:28:46;1.83;;;1.62;;
48092;SDS011;33873;47.442;18.902;2022-10-20T03:31:13;1.98;;;1.45;;
48092;SDS011;33873;47.442;18.902;2022-10-20T03:33:41;3.50;;;2.35;;
48092;SDS011;33873;47.442;18.902;2022-10-20T03:36:08;2.17;;;1.55;;
48092;SDS011;33873;47.442;18.902;2022-10-20T03:38:36;0.82;;;0.82;;
48092;SDS011;33873;47.442;18.902;2022-10-20T03:41:03;0.98;;;0.85;;
48092;SDS011;33873;47.442;18.902;2022-10-20T03:43:31;1.55;;;1.27;;
48092;SDS011;33873;47.442;18.902;2022-10-20T03:46:05;1.80;;;1.02;;
48092;SDS011;33873;47.442;18.902;2022-10-20T03:48:35;5.32;;;1.40;;
48092;SDS011;33873;47.442;18.902;2022-10-20T03:51:03;1.48;;;0.98;;
48092;SDS011;33873;47.442;18.902;2022-10-20T03:53:31;1.65;;;1.40;;
48092;SDS011;33873;47.442;18.902;2022-10-20T03:56:03;2.50;;;1.40;;
48092;SDS011;33873;47.442;18.902;2022-10-20T03:58:31;2.90;;;1.60;;
48092;SDS011;33873;47.442;18.902;2022-10-20T04:00:59;2.35;;;1.95;;
48092;SDS011;33873;47.442;18.902;2022-10-20T04:03:27;2.42;;;1.83;;
48092;SDS011;33873;47.442;18.902;2022-10-20T04:05:54;2.42;;;1.75;;
48092;SDS011;33873;47.442;18.902;2022-10-20T04:08:22;4.55;;;2.20;;
48092;SDS011;33873;47.442;18.902;2022-10-20T04:10:50;1.85;;;1.50;;
48092;SDS011;33873;47.442;18.902;2022-10-20T04:13:17;4.30;;;1.60;;
48092;SDS011;33873;47.442;18.902;2022-10-20T04:15:44;2.92;;;1.98;;
48092;SDS011;33873;47.442;18.902;2022-10-20T04:18:12;4.05;;;1.50;;
48092;SDS011;33873;47.442;18.902;2022-10-20T04:20:40;1.75;;;1.23;;
48092;SDS011;33873;47.442;18.902;2022-10-20T04:23:10;8.93;;;1.77;;
48092;SDS011;33873;47.442;18.902;2022-10-20T04:25:39;3.80;;;1.90;;
48092;SDS011;33873;47.442;18.902;2022-10-20T04:28:12;2.95;;;2.10;;
48092;SDS011;33873;47.442;18.902;2022-10-20T04:30:40;1.60;;;1.30;;
48092;SDS011;33873;47.442;18.902;2022-10-20T04:33:08;3.42;;;2.15;;
48092;SDS011;33873;47.442;18.902;2022-10-20T04:35:36;2.40;;;1.25;;
48092;SDS011;33873;47.442;18.902;2022-10-20T04:38:04;1.45;;;1.35;;
48092;SDS011;33873;47.442;18.902;2022-10-20T04:40:32;4.25;;;1.75;;
48092;SDS011;33873;47.442;18.902;2022-10-20T04:42:59;1.12;;;1.05;;
48092;SDS011;33873;47.442;18.902;2022-10-20T04:45:27;0.93;;;0.93;;
48092;SDS011;33873;47.442;18.902;2022-10-20T04:47:55;1.08;;;0.98;;
48092;SDS011;33873;47.442;18.902;2022-10-20T04:50:22;1.65;;;1.48;;
48092;SDS011;33873;47.442;18.902;2022-10-20T04:53:05;1.20;;;1.10;;
48092;SDS011;33873;47.442;18.902;2022-10-20T04:55:34;0.80;;;0.77;;
48092;SDS011;33873;47.442;18.902;2022-10-20T04:58:02;1.37;;;1.05;;
48092;SDS011;33873;47.442;18.902;2022-10-20T05:00:29;1.27;;;1.15;;
48092;SDS011;33873;47.442;18.902;2022-10-20T05:02:57;1.05;;;0.95;;
48092;SDS011;33873;47.442;18.902;2022-10-20T05:05:25;0.77;;;0.77;;
48092;SDS011;33873;47.442;18.902;2022-10-20T05:07:52;2.37;;;1.55;;
48092;SDS011;33873;47.442;18.902;2022-10-20T05:10:19;1.62;;;1.42;;
48092;SDS011;33873;47.442;18.902;2022-10-20T05:12:47;1.35;;;1.25;;
48092;SDS011;33873;47.442;18.902;2022-10-20T05:15:15;2.05;;;1.60;;
48092;SDS011;33873;47.442;18.902;2022-10-20T05:17:42;1.65;;;1.37;;
48092;SDS011;33873;47.442;18.902;2022-10-20T05:20:10;1.65;;;1.30;;
48092;SDS011;33873;47.442;18.902;2022-10-20T05:22:37;0.77;;;0.77;;
48092;SDS011;33873;47.442;18.902;2022-10-20T05:25:05;1.30;;;1.15;;
48092;SDS011;33873;47.442;18.902;2022-10-20T05:27:53;0.93;;;0.85;;
48092;SDS011;33873;47.442;18.902;2022-10-20T05:30:21;2.50;;;1.20;;
48092;SDS011;33873;47.442;18.902;2022-10-20T05:32:48;1.20;;;1.10;;
48092;SDS011;33873;47.442;18.902;2022-10-20T05:35:16;3.53;;;1.33;;
48092;SDS011;33873;47.442;18.902;2022-10-20T05:37:43;2.05;;;1.60;;
48092;SDS011;33873;47.442;18.902;2022-10-20T05:40:11;2.28;;;1.15;;
48092;SDS011;33873;47.442;18.902;2022-10-20T05:42:39;0.80;;;0.73;;
48092;SDS011;33873;47.442;18.902;2022-10-20T05:45:06;1.65;;;0.95;;
48092;SDS011;33873;47.442;18.902;2022-10-20T05:47:34;1.08;;;0.88;;
48092;SDS011;33873;47.442;18.902;2022-10-20T05:50:02;2.75;;;1.20;;
48092;SDS011;33873;47.442;18.902;2022-10-20T05:52:30;3.08;;;1.67;;
48092;SDS011;33873;47.442;18.902;2022-10-20T05:54:58;2.83;;;2.10;;
48092;SDS011;33873;47.442;18.902;2022-10-20T05:57:25;0.82;;;0.82;;
48092;SDS011;33873;47.442;18.902;2022-10-20T05:59:53;1.62;;;1.25;;
48092;SDS011;33873;47.442;18.902;2022-10-20T06:02:20;1.12;;;1.02;;
48092;SDS011;33873;47.442;18.902;2022-10-20T06:04:48;2.55;;;1.55;;
48092;SDS011;33873;47.442;18.902;2022-10-20T06:07:15;3.83;;;1.42;;
48092;SDS011;33873;47.442;18.902;2022-10-20T06:09:43;3.25;;;2.58;;
48092;SDS011;33873;47.442;18.902;2022-10-20T06:12:11;4.10;;;1.87;;
48092;SDS011;33873;47.442;18.902;2022-10-20T06:14:38;5.43;;;2.00;;
48092;SDS011;33873;47.442;18.902;2022-10-20T06:17:06;2.58;;;2.12;;
48092;SDS011;33873;47.442;18.902;2022-10-20T06:19:33;2.45;;;1.30;;
48092;SDS011;33873;47.442;18.902;2022-10-20T06:22:01;5.93;;;3.33;;
48092;SDS011;33873;47.442;18.902;2022-10-20T06:24:33;5.60;;;2.15;;
48092;SDS011;33873;47.442;18.902;2022-10-20T06:27:01;2.87;;;2.25;;
48092;SDS011;33873;47.442;18.902;2022-10-20T06:29:28;5.70;;;2.40;;
48092;SDS011;33873;47.442;18.902;2022-10-20T06:31:56;18.33;;;1.85;;
48092;SDS011;33873;47.442;18.902;2022-10-20T06:34:24;1.48;;;1.35;;
48092;SDS011;33873;47.442;18.902;2022-10-20T06:36:51;2.08;;;1.87;;
48092;SDS011;33873;47.442;18.902;2022-10-20T06:39:20;2.90;;;2.08;;
48092;SDS011;33873;47.442;18.902;2022-10-20T06:41:50;4.75;;;2.75;;
48092;SDS011;33873;47.442;18.902;2022-10-20T06:44:20;2.87;;;2.10;;
48092;SDS011;33873;47.442;18.902;2022-10-20T06:46:48;5.97;;;2.87;;
48092;SDS011;33873;47.442;18.902;2022-10-20T06:49:18;2.42;;;1.92;;
48092;SDS011;33873;47.442;18.902;2022-10-20T06:51:46;5.78;;;3.17;;
48092;SDS011;33873;47.442;18.902;2022-10-20T06:54:14;11.68;;;1.90;;
48092;SDS011;33873;47.442;18.902;2022-10-20T06:56:41;2.67;;;2.28;;
48092;SDS011;33873;47.442;18.902;2022-10-20T06:59:09;8.10;;;4.30;;
48092;SDS011;33873;47.442;18.902;2022-10-20T07:01:37;7.28;;;2.87;;
48092;SDS011;33873;47.442;18.902;2022-10-20T07:04:06;4.75;;;2.87;;
48092;SDS011;33873;47.442;18.902;2022-10-20T07:06:37;4.10;;;2.92;;
48092;SDS011;33873;47.442;18.902;2022-10-20T07:09:06;3.75;;;2.40;;
48092;SDS011;33873;47.442;18.902;2022-10-20T07:11:35;4.28;;;2.30;;
48092;SDS011;33873;47.442;18.902;2022-10-20T07:14:03;9.75;;;3.72;;
48092;SDS011;33873;47.442;18.902;2022-10-20T07:16:31;4.03;;;2.12;;
48092;SDS011;33873;47.442;18.902;2022-10-20T07:18:59;2.80;;;1.65;;
48092;SDS011;33873;47.442;18.902;2022-10-20T07:21:28;3.03;;;2.33;;
48092;SDS011;33873;47.442;18.902;2022-10-20T07:24:04;1.20;;;0.93;;
48092;SDS011;33873;47.442;18.902;2022-10-20T07:26:33;16.55;;;2.10;;
48092;SDS011;33873;47.442;18.902;2022-10-20T07:29:02;4.07;;;2.80;;
48092;SDS011;33873;47.442;18.902;2022-10-20T07:31:31;4.37;;;2.50;;
48092;SDS011;33873;47.442;18.902;2022-10-20T07:33:59;2.17;;;1.55;;
48092;SDS011;33873;47.442;18.902;2022-10-20T07:36:46;4.22;;;1.87;;
48092;SDS011;33873;47.442;18.902;2022-10-20T07:39:15;3.42;;;2.25;;
48092;SDS011;33873;47.442;18.902;2022-10-20T07:41:43;1.95;;;1.52;;
48092;SDS011;33873;47.442;18.902;2022-10-20T07:44:13;7.85;;;2.60;;
48092;SDS011;33873;47.442;18.902;2022-10-20T07:46:41;3.05;;;1.58;;
48092;SDS011;33873;47.442;18.902;2022-10-20T07:49:08;4.03;;;2.33;;
48092;SDS011;33873;47.442;18.902;2022-10-20T07:51:56;11.98;;;1.65;;
48092;SDS011;33873;47.442;18.902;2022-10-20T07:54:24;4.78;;;3.05;;
48092;SDS011;33873;47.442;18.902;2022-10-20T07:56:51;3.47;;;2.45;;
48092;SDS011;33873;47.442;18.902;2022-10-20T07:59:19;2.45;;;1.50;;
48092;SDS011;33873;47.442;18.902;2022-10-20T08:01:47;13.35;;;2.70;;
48092;SDS011;33873;47.442;18.902;2022-10-20T08:04:14;2.92;;;1.80;;
48092;SDS011;33873;47.442;18.902;2022-10-20T08:06:42;1.45;;;1.15;;
48092;SDS011;33873;47.442;18.902;2022-10-20T08:09:09;2.30;;;1.62;;
48092;SDS011;33873;47.442;18.902;2022-10-20T08:11:37;3.15;;;2.00;;
48092;SDS011;33873;47.442;18.902;2022-10-20T08:14:05;4.60;;;2.47;;
48092;SDS011;33873;47.442;18.902;2022-10-20T08:16:32;2.83;;;1.77;;
48092;SDS011;33873;47.442;18.902;2022-10-20T08:19:03;3.20;;;2.25;;
48092;SDS011;33873;47.442;18.902;2022-10-20T08:21:44;6.68;;;2.25;;
48092;SDS011;33873;47.442;18.902;2022-10-20T08:24:12;3.83;;;2.22;;
48092;SDS011;33873;47.442;18.902;2022-10-20T08:26:39;3.10;;;2.05;;
48092;SDS011;33873;47.442;18.902;2022-10-20T08:29:07;2.05;;;1.50;;
48092;SDS011;33873;47.442;18.902;2022-10-20T08:31:35;7.18;;;2.97;;
48092;SDS011;33873;47.442;18.902;2022-10-20T08:34:02;3.70;;;2.17;;
48092;SDS011;33873;47.442;18.902;2022-10-20T08:36:30;3.40;;;1.27;;
48092;SDS011;33873;47.442;18.902;2022-10-20T08:38:58;3.17;;;2.35;;
48092;SDS011;33873;47.442;18.902;2022-10-20T08:41:32;3.62;;;1.70;;
48092;SDS011;33873;47.442;18.902;2022-10-20T08:44:24;2.25;;;1.33;;
48092;SDS011;33873;47.442;18.902;2022-10-20T08:46:53;4.35;;;1.75;;
48092;SDS011;33873;47.442;18.902;2022-10-20T08:49:25;7.37;;;2.47;;
48092;SDS011;33873;47.442;18.902;2022-10-20T08:51:54;7.03;;;1.95;;
48092;SDS011;33873;47.442;18.902;2022-10-20T08:54:21;3.22;;;2.33;;
48092;SDS011;33873;47.442;18.902;2022-10-20T08:56:49;2.72;;;1.77;;
48092;SDS011;33873;47.442;18.902;2022-10-20T09:01:47;2.62;;;1.70;;
48092;SDS011;33873;47.442;18.902;2022-10-20T09:04:17;4.47;;;2.25;;
48092;SDS011;33873;47.442;18.902;2022-10-20T09:06:48;1.87;;;1.17;;
48092;SDS011;33873;47.442;18.902;2022-10-20T09:09:20;2.17;;;1.75;;
48092;SDS011;33873;47.442;18.902;2022-10-20T09:11:48;1.48;;;1.05;;
48092;SDS011;33873;47.442;18.902;2022-10-20T09:14:16;2.53;;;1.65;;
48092;SDS011;33873;47.442;18.902;2022-10-20T09:16:43;4.47;;;2.35;;
48092;SDS011;33873;47.442;18.902;2022-10-20T09:19:26;1.48;;;1.05;;
48092;SDS011;33873;47.442;18.902;2022-10-20T09:21:57;2.03;;;1.40;;
48092;SDS011;33873;47.442;18.902;2022-10-20T09:24:30;2.53;;;1.45;;
48092;SDS011;33873;47.442;18.902;2022-10-20T09:27:15;1.35;;;1.02;;
48092;SDS011;33873;47.442;18.902;2022-10-20T09:30:13;2.50;;;1.58;;
48092;SDS011;33873;47.442;18.902;2022-10-20T09:32:52;2.47;;;1.58;;
48092;SDS011;33873;47.442;18.902;2022-10-20T09:35:21;1.73;;;1.15;;
48092;SDS011;33873;47.442;18.902;2022-10-20T09:37:55;1.50;;;1.40;;
48092;SDS011;33873;47.442;18.902;2022-10-20T09:40:56;1.98;;;1.05;;
48092;SDS011;33873;47.442;18.902;2022-10-20T09:43:28;3.90;;;2.08;;
48092;SDS011;33873;47.442;18.902;2022-10-20T09:46:02;5.28;;;1.67;;
48092;SDS011;33873;47.442;18.902;2022-10-20T09:48:35;2.08;;;1.42;;
48092;SDS011;33873;47.442;18.902;2022-10-20T09:51:12;1.62;;;1.17;;
48092;SDS011;33873;47.442;18.902;2022-10-20T09:56:33;2.15;;;1.37;;
48092;SDS011;33873;47.442;18.902;2022-10-20T09:59:17;1.77;;;1.17;;
48092;SDS011;33873;47.442;18.902;2022-10-20T10:04:32;2.47;;;1.50;;
48092;SDS011;33873;47.442;18.902;2022-10-20T10:07:01;1.80;;;1.33;;
48092;SDS011;33873;47.442;18.902;2022-10-20T10:09:34;1.87;;;1.48;;
48092;SDS011;33873;47.442;18.902;2022-10-20T10:12:05;4.85;;;1.83;;
48092;SDS011;33873;47.442;18.902;2022-10-20T10:14:50;4.20;;;1.52;;
48092;SDS011;33873;47.442;18.902;2022-10-20T10:17:37;2.80;;;2.03;;
48092;SDS011;33873;47.442;18.902;2022-10-20T10:20:24;3.40;;;1.73;;
48092;SDS011;33873;47.442;18.902;2022-10-20T10:25:47;3.92;;;1.62;;
48092;SDS011;33873;47.442;18.902;2022-10-20T10:28:21;4.00;;;2.25;;
48092;SDS011;33873;47.442;18.902;2022-10-20T10:33:49;4.03;;;2.28;;
48092;SDS011;33873;47.442;18.902;2022-10-20T10:36:29;3.22;;;1.62;;
48092;SDS011;33873;47.442;18.902;2022-10-20T10:39:01;2.55;;;1.40;;
48092;SDS011;33873;47.442;18.902;2022-10-20T10:47:19;9.15;;;1.70;;
48092;SDS011;33873;47.442;18.902;2022-10-20T10:59:38;1.75;;;1.35;;
48092;SDS011;33873;47.442;18.902;2022-10-20T11:19:09;1.45;;;1.02;;
48092;SDS011;33873;47.442;18.902;2022-10-20T11:22:10;4.40;;;1.92;;
48092;SDS011;33873;47.442;18.902;2022-10-20T11:24:55;1.42;;;1.02;;
48092;SDS011;33873;47.442;18.902;2022-10-20T11:27:43;2.35;;;1.52;;
48092;SDS011;33873;47.442;18.902;2022-10-20T11:30:13;1.73;;;1.08;;
48092;SDS011;33873;47.442;18.902;2022-10-20T11:33:03;1.15;;;1.05;;
48092;SDS011;33873;47.442;18.902;2022-10-20T11:44:02;4.00;;;1.85;;
48092;SDS011;33873;47.442;18.902;2022-10-20T11:49:02;2.62;;;1.55;;
48092;SDS011;33873;47.442;18.902;2022-10-20T11:56:50;3.60;;;1.70;;
48092;SDS011;33873;47.442;18.902;2022-10-20T12:05:38;3.80;;;2.28;;
48092;SDS011;33873;47.442;18.902;2022-10-20T12:08:27;3.55;;;2.10;;
48092;SDS011;33873;47.442;18.902;2022-10-20T12:19:22;2.60;;;1.37;;
48092;SDS011;33873;47.442;18.902;2022-10-20T12:21:52;1.75;;;1.08;;
48092;SDS011;33873;47.442;18.902;2022-10-20T12:27:21;2.17;;;1.65;;
48092;SDS011;33873;47.442;18.902;2022-10-20T12:29:52;3.05;;;2.03;;
48092;SDS011;33873;47.442;18.902;2022-10-20T12:34:49;3.67;;;1.70;;
48092;SDS011;33873;47.442;18.902;2022-10-20T12:42:37;3.10;;;1.85;;
48092;SDS011;33873;47.442;18.902;2022-10-20T12:45:07;6.10;;;1.83;;
48092;SDS011;33873;47.442;18.902;2022-10-20T12:47:49;3.72;;;1.98;;
48092;SDS011;33873;47.442;18.902;2022-10-20T12:53:09;4.12;;;1.52;;
48092;SDS011;33873;47.442;18.902;2022-10-20T12:55:37;2.03;;;1.55;;
48092;SDS011;33873;47.442;18.902;2022-10-20T12:58:30;3.83;;;1.75;;
48092;SDS011;33873;47.442;18.902;2022-10-20T13:01:08;5.65;;;2.20;;
48092;SDS011;33873;47.442;18.902;2022-10-20T13:03:38;4.00;;;1.87;;
48092;SDS011;33873;47.442;18.902;2022-10-20T13:16:39;3.20;;;2.28;;
48092;SDS011;33873;47.442;18.902;2022-10-20T13:19:17;9.85;;;1.95;;
48092;SDS011;33873;47.442;18.902;2022-10-20T13:21:48;1.75;;;1.10;;
48092;SDS011;33873;47.442;18.902;2022-10-20T13:24:18;4.97;;;1.37;;
48092;SDS011;33873;47.442;18.902;2022-10-20T13:26:53;2.95;;;1.98;;
48092;SDS011;33873;47.442;18.902;2022-10-20T13:29:29;1.60;;;1.08;;
48092;SDS011;33873;47.442;18.902;2022-10-20T13:32:04;2.85;;;1.87;;
48092;SDS011;33873;47.442;18.902;2022-10-20T13:37:37;4.55;;;2.42;;
48092;SDS011;33873;47.442;18.902;2022-10-20T13:40:24;1.98;;;1.48;;
48092;SDS011;33873;47.442;18.902;2022-10-20T13:51:37;3.87;;;2.05;;
48092;SDS011;33873;47.442;18.902;2022-10-20T13:54:17;2.90;;;1.70;;
48092;SDS011;33873;47.442;18.902;2022-10-20T13:56:54;3.80;;;1.83;;
48092;SDS011;33873;47.442;18.902;2022-10-20T14:01:58;4.30;;;1.95;;
48092;SDS011;33873;47.442;18.902;2022-10-20T14:07:02;2.05;;;1.37;;
48092;SDS011;33873;47.442;18.902;2022-10-20T14:09:55;4.25;;;2.08;;
48092;SDS011;33873;47.442;18.902;2022-10-20T14:12:23;5.57;;;1.37;;
48092;SDS011;33873;47.442;18.902;2022-10-20T14:14:54;2.40;;;1.50;;
48092;SDS011;33873;47.442;18.902;2022-10-20T14:20:08;3.75;;;1.45;;
48092;SDS011;33873;47.442;18.902;2022-10-20T14:22:43;6.03;;;2.03;;
48092;SDS011;33873;47.442;18.902;2022-10-20T14:25:11;3.33;;;1.90;;
48092;SDS011;33873;47.442;18.902;2022-10-20T14:27:39;4.85;;;2.33;;
48092;SDS011;33873;47.442;18.902;2022-10-20T14:30:07;2.50;;;1.27;;
48092;SDS011;33873;47.442;18.902;2022-10-20T14:32:40;4.05;;;2.03;;
48092;SDS011;33873;47.442;18.902;2022-10-20T14:35:18;3.28;;;1.58;;
48092;SDS011;33873;47.442;18.902;2022-10-20T14:40:30;4.10;;;2.40;;
48092;SDS011;33873;47.442;18.902;2022-10-20T14:43:01;3.95;;;1.80;;
48092;SDS011;33873;47.442;18.902;2022-10-20T14:45:30;4.85;;;2.85;;
48092;SDS011;33873;47.442;18.902;2022-10-20T14:48:03;3.90;;;2.10;;
48092;SDS011;33873;47.442;18.902;2022-10-20T14:50:36;4.40;;;1.98;;
48092;SDS011;33873;47.442;18.902;2022-10-20T14:53:17;1.67;;;1.17;;
48092;SDS011;33873;47.442;18.902;2022-10-20T14:55:53;3.72;;;1.73;;
48092;SDS011;33873;47.442;18.902;2022-10-20T15:03:41;4.25;;;1.77;;
48092;SDS011;33873;47.442;18.902;2022-10-20T15:06:11;3.80;;;1.50;;
48092;SDS011;33873;47.442;18.902;2022-10-20T15:08:50;4.62;;;1.87;;
48092;SDS011;33873;47.442;18.902;2022-10-20T15:11:20;4.15;;;2.03;;
48092;SDS011;33873;47.442;18.902;2022-10-20T15:13:50;2.12;;;1.80;;
48092;SDS011;33873;47.442;18.902;2022-10-20T15:16:33;4.65;;;1.87;;
48092;SDS011;33873;47.442;18.902;2022-10-20T15:24:34;3.70;;;2.15;;
48092;SDS011;33873;47.442;18.902;2022-10-20T15:27:03;4.78;;;2.15;;
48092;SDS011;33873;47.442;18.902;2022-10-20T15:29:31;10.82;;;4.97;;
48092;SDS011;33873;47.442;18.902;2022-10-20T15:32:00;8.90;;;4.95;;
48092;SDS011;33873;47.442;18.902;2022-10-20T15:34:29;7.43;;;4.20;;
48092;SDS011;33873;47.442;18.902;2022-10-20T15:36:57;9.45;;;4.62;;
48092;SDS011;33873;47.442;18.902;2022-10-20T15:39:25;8.90;;;4.37;;
48092;SDS011;33873;47.442;18.902;2022-10-20T15:41:53;6.65;;;3.62;;
48092;SDS011;33873;47.442;18.902;2022-10-20T15:44:21;9.95;;;5.07;;
48092;SDS011;33873;47.442;18.902;2022-10-20T15:46:50;8.73;;;5.45;;
48092;SDS011;33873;47.442;18.902;2022-10-20T15:49:19;10.07;;;5.43;;
48092;SDS011;33873;47.442;18.902;2022-10-20T15:51:47;5.87;;;4.22;;
48092;SDS011;33873;47.442;18.902;2022-10-20T15:54:18;10.63;;;4.47;;
48092;SDS011;33873;47.442;18.902;2022-10-20T15:56:47;6.37;;;5.12;;
48092;SDS011;33873;47.442;18.902;2022-10-20T15:59:14;10.35;;;6.68;;
48092;SDS011;33873;47.442;18.902;2022-10-20T16:01:42;15.57;;;9.27;;
48092;SDS011;33873;47.442;18.902;2022-10-20T16:04:18;27.55;;;24.80;;
48092;SDS011;33873;47.442;18.902;2022-10-20T16:06:49;24.17;;;17.58;;
48092;SDS011;33873;47.442;18.902;2022-10-20T16:09:26;13.75;;;11.27;;
48092;SDS011;33873;47.442;18.902;2022-10-20T16:11:54;16.85;;;13.88;;
48092;SDS011;33873;47.442;18.902;2022-10-20T16:14:22;7.12;;;4.75;;
48092;SDS011;33873;47.442;18.902;2022-10-20T16:16:50;11.18;;;7.10;;
48092;SDS011;33873;47.442;18.902;2022-10-20T16:19:17;12.80;;;6.85;;
48092;SDS011;33873;47.442;18.902;2022-10-20T16:22:05;19.17;;;6.85;;
48092;SDS011;33873;47.442;18.902;2022-10-20T16:24:53;55.33;;;34.45;;
48092;SDS011;33873;47.442;18.902;2022-10-20T16:27:42;26.00;;;20.17;;
48092;SDS011;33873;47.442;18.902;2022-10-20T16:30:29;24.25;;;14.27;;
48092;SDS011;33873;47.442;18.902;2022-10-20T16:33:17;14.48;;;8.52;;
48092;SDS011;33873;47.442;18.902;2022-10-20T16:35:44;24.50;;;17.85;;
48092;SDS011;33873;47.442;18.902;2022-10-20T16:38:12;9.15;;;6.60;;
48092;SDS011;33873;47.442;18.902;2022-10-20T16:40:41;20.62;;;10.80;;
48092;SDS011;33873;47.442;18.902;2022-10-20T16:43:09;25.52;;;16.15;;
48092;SDS011;33873;47.442;18.902;2022-10-20T16:45:37;43.47;;;30.45;;
48092;SDS011;33873;47.442;18.902;2022-10-20T16:48:05;22.75;;;16.15;;
48092;SDS011;33873;47.442;18.902;2022-10-20T16:50:33;17.30;;;12.82;;
48092;SDS011;33873;47.442;18.902;2022-10-20T16:53:00;14.65;;;9.00;;
48092;SDS011;33873;47.442;18.902;2022-10-20T16:55:28;14.13;;;7.65;;
48092;SDS011;33873;47.442;18.902;2022-10-20T16:57:56;21.15;;;9.20;;
48092;SDS011;33873;47.442;18.902;2022-10-20T17:00:23;15.25;;;8.65;;
48092;SDS011;33873;47.442;18.902;2022-10-20T17:02:51;11.45;;;7.07;;
48092;SDS011;33873;47.442;18.902;2022-10-20T17:05:23;8.23;;;4.75;;
48092;SDS011;33873;47.442;18.902;2022-10-20T17:07:53;9.95;;;5.82;;
48092;SDS011;33873;47.442;18.902;2022-10-20T17:10:21;10.65;;;5.80;;
48092;SDS011;33873;47.442;18.902;2022-10-20T17:12:49;12.90;;;7.12;;
48092;SDS011;33873;47.442;18.902;2022-10-20T17:15:17;6.62;;;4.72;;
48092;SDS011;33873;47.442;18.902;2022-10-20T17:17:44;8.35;;;4.65;;
48092;SDS011;33873;47.442;18.902;2022-10-20T17:20:12;12.50;;;4.72;;
48092;SDS011;33873;47.442;18.902;2022-10-20T17:22:40;9.82;;;5.07;;
48092;SDS011;33873;47.442;18.902;2022-10-20T17:25:08;6.18;;;3.25;;
48092;SDS011;33873;47.442;18.902;2022-10-20T17:27:36;8.43;;;5.12;;
48092;SDS011;33873;47.442;18.902;2022-10-20T17:30:04;9.00;;;5.82;;
48092;SDS011;33873;47.442;18.902;2022-10-20T17:32:32;8.88;;;7.03;;